Time;durP1;ratioP1;P1;durP2;ratioP2;P2;SDS_P1;SDS_P2;PMS_P1;PMS_P2;Temp;Humidity;BMP_temperature;BMP_pressure;BME280_temperature;BME280_humidity;BME280_pressure;Samples;Min_cycle;Max_cycle;Signal;HPM_P1;HPM_P2
2024/04/02 00:00:34;;;;;;;2.63;2.43;;;;;;;16.33;82.52;98777.91;5073640;28;20200;-70
2024/04/02 00:03:00;;;;;;;3.83;1.60;;;;;;;16.20;82.85;98782.19;5073197;28;20686;-69
2024/04/02 00:05:26;;;;;;;2.70;2.00;;;;;;;16.18;82.98;98781.47;5073118;28;20298;-69
2024/04/02 00:07:53;;;;;;;2.40;2.30;;;;;;;16.18;82.77;98784.03;5073387;28;20254;-69
2024/04/02 00:10:20;;;;;;;2.13;1.93;;;;;;;16.20;82.39;98772.66;5073467;28;20192;-69
2024/04/02 00:12:46;;;;;;;1.70;1.60;;;;;;;16.20;81.56;98771.84;5073257;28;20735;-69
2024/04/02 00:15:13;;;;;;;1.50;1.50;;;;;;;16.21;81.21;98783.84;5073337;28;20200;-69
2024/04/02 00:17:38;;;;;;;5.97;1.53;;;;;;;16.15;81.84;98774.72;5073423;28;20200;-68
2024/04/02 00:20:06;;;;;;;12.30;1.57;;;;;;;16.15;82.32;98776.47;5073033;28;20223;-69
2024/04/02 00:22:32;;;;;;;1.90;1.53;;;;;;;15.97;83.15;98754.34;5073077;28;20199;-69
2024/04/02 00:25:00;;;;;;;2.00;1.30;;;;;;;15.95;83.62;98782.06;5073014;28;20253;-69
2024/04/02 00:27:27;;;;;;;6.23;2.07;;;;;;;15.97;84.00;98775.03;5073501;28;20707;-69
2024/04/02 00:29:54;;;;;;;8.97;1.73;;;;;;;15.61;84.74;98773.75;5072727;28;20216;-69
2024/04/02 00:32:20;;;;;;;1.77;1.00;;;;;;;15.54;85.81;98782.00;5073453;28;20261;-69
2024/04/02 00:34:46;;;;;;;1.47;1.37;;;;;;;15.46;86.54;98782.41;5072736;28;20224;-69
2024/04/02 00:37:12;;;;;;;1.13;0.90;;;;;;;15.29;87.47;98772.25;5071627;28;20630;-69
2024/04/02 00:39:39;;;;;;;1.30;1.30;;;;;;;14.84;88.62;98749.13;5072585;28;20212;-69
2024/04/02 00:42:06;;;;;;;2.60;1.23;;;;;;;15.05;89.34;98768.53;5073087;28;20198;-69
2024/04/02 00:44:34;;;;;;;10.37;1.17;;;;;;;15.17;88.90;98760.06;5072796;28;20285;-69
2024/04/02 00:47:00;;;;;;;4.67;1.00;;;;;;;15.14;88.22;98752.50;5073060;28;20646;-69
2024/04/02 00:49:27;;;;;;;1.57;0.93;;;;;;;15.19;88.29;98753.03;5072680;28;20211;-69
2024/04/02 00:51:53;;;;;;;2.50;1.50;;;;;;;15.15;88.17;98741.25;5072702;28;20261;-69
2024/04/02 00:54:21;;;;;;;3.57;1.40;;;;;;;15.09;87.61;98728.69;5071981;28;20219;-69
2024/04/02 00:56:46;;;;;;;2.00;1.80;;;;;;;15.21;86.88;98738.31;5073096;28;20644;-69
2024/04/02 00:59:15;;;;;;;4.27;1.67;;;;;;;15.25;86.73;98738.03;5072007;28;20234;-69
2024/04/02 01:01:41;;;;;;;1.40;1.30;;;;;;;15.27;86.78;98737.94;5073075;28;20196;-69
2024/04/02 01:04:08;;;;;;;0.93;0.93;;;;;;;15.28;86.19;98725.88;5072623;28;20718;-69
2024/04/02 01:06:34;;;;;;;2.10;1.30;;;;;;;15.23;86.93;98736.47;5072045;28;20208;-69
2024/04/02 01:09:01;;;;;;;1.53;1.00;;;;;;;15.17;86.96;98726.50;5072557;28;20211;-69
2024/04/02 01:11:27;;;;;;;1.90;1.20;;;;;;;15.16;87.31;98735.16;5072109;28;20208;-69
2024/04/02 01:13:54;;;;;;;2.07;1.30;;;;;;;15.19;87.08;98735.81;5072257;28;20320;-69
2024/04/02 01:16:21;;;;;;;2.03;1.23;;;;;;;15.27;86.76;98727.63;5072044;28;20192;-69
2024/04/02 01:18:48;;;;;;;5.57;1.30;;;;;;;15.28;86.75;98718.13;5072263;28;20699;-69
2024/04/02 01:21:14;;;;;;;1.80;1.70;;;;;;;15.25;86.59;98734.59;5071347;28;20256;-69
2024/04/02 01:23:41;;;;;;;1.23;1.17;;;;;;;15.31;86.59;98738.59;5071844;28;20196;-69
2024/04/02 01:26:08;;;;;;;1.20;1.20;;;;;;;15.35;87.10;98717.63;5072096;28;20211;-69
2024/04/02 01:28:35;;;;;;;1.47;1.37;;;;;;;15.31;86.80;98739.44;5071722;28;20207;-69
2024/04/02 01:31:02;;;;;;;4.47;1.33;;;;;;;15.27;87.02;98727.63;5071950;28;20265;-69
2024/04/02 01:33:29;;;;;;;5.07;1.80;;;;;;;15.26;87.16;98731.09;5070777;28;20311;-69
2024/04/02 01:35:55;;;;;;;5.87;1.77;;;;;;;15.27;87.21;98737.94;5071974;28;20207;-70
2024/04/02 01:38:22;;;;;;;0.90;0.90;;;;;;;15.26;88.01;98741.44;5071700;28;20248;-69
2024/04/02 01:40:47;;;;;;;1.80;1.70;;;;;;;15.28;87.76;98739.63;5071597;28;20268;-69
2024/04/02 01:43:16;;;;;;;2.70;2.53;;;;;;;15.27;88.00;98734.53;5072125;28;20196;-69
2024/04/02 01:45:41;;;;;;;9.40;1.23;;;;;;;15.27;87.66;98743.09;5071135;28;20204;-69
2024/04/02 01:48:08;;;;;;;1.90;1.80;;;;;;;15.29;87.64;98751.59;5072217;28;20253;-69
2024/04/02 01:50:34;;;;;;;1.30;1.17;;;;;;;15.17;87.68;98731.66;5070821;28;20257;-69
2024/04/02 01:53:01;;;;;;;1.40;1.27;;;;;;;14.69;89.95;98733.63;5071325;28;20204;-69
2024/04/02 01:55:26;;;;;;;7.77;1.53;;;;;;;14.63;90.37;98739.13;5071435;28;20317;-69
2024/04/02 01:57:53;;;;;;;1.90;1.20;;;;;;;14.41;92.02;98715.44;5070967;28;20625;-69
2024/04/02 02:00:20;;;;;;;4.30;1.80;;;;;;;14.40;93.18;98724.13;5071825;28;20202;-69
2024/04/02 02:02:50;;;;;;;1.90;1.60;;;;;;;14.48;93.37;98732.25;5070571;28;20219;-69
2024/04/02 02:05:16;;;;;;;3.10;2.13;;;;;;;14.37;93.96;98713.97;5071421;28;20256;-69
2024/04/02 02:07:42;;;;;;;8.03;1.73;;;;;;;14.46;93.75;98723.78;5071492;28;20195;-68
2024/04/02 02:10:11;;;;;;;4.40;1.20;;;;;;;14.48;92.67;98727.09;5071183;28;20206;-69
2024/04/02 02:12:38;;;;;;;6.13;1.37;;;;;;;14.51;92.69;98723.50;5070548;28;20718;-69
2024/04/02 02:15:05;;;;;;;1.33;1.23;;;;;;;14.48;92.37;98705.63;5071199;28;20650;-69
2024/04/02 02:17:33;;;;;;;1.27;1.27;;;;;;;14.49;91.62;98726.16;5070662;28;20679;-69
2024/04/02 02:19:58;;;;;;;3.03;1.37;;;;;;;14.54;92.20;98711.25;5070622;28;20204;-69
2024/04/02 02:22:25;;;;;;;1.63;1.53;;;;;;;14.33;92.18;98707.31;5071205;28;20214;-70
2024/04/02 02:24:51;;;;;;;7.50;1.53;;;;;;;14.28;92.76;98724.75;5070684;28;20196;-69
2024/04/02 02:27:18;;;;;;;1.80;1.70;;;;;;;14.11;93.00;98693.94;5070776;28;20304;-71
2024/04/02 02:29:43;;;;;;;1.47;1.40;;;;;;;13.92;95.06;98706.19;5070730;28;20202;-69
2024/04/02 02:32:10;;;;;;;2.60;0.83;;;;;;;13.83;95.08;98686.88;5070305;28;20204;-70
2024/04/02 02:34:39;;;;;;;15.13;1.43;;;;;;;13.83;95.17;98693.81;5070886;28;20212;-69
2024/04/02 02:37:05;;;;;;;1.70;1.53;;;;;;;13.94;95.57;98696.63;5070380;28;20244;-69
2024/04/02 02:39:32;;;;;;;13.13;2.47;;;;;;;14.06;95.28;98695.94;5070600;28;20245;-69
2024/04/02 02:41:58;;;;;;;1.43;1.10;;;;;;;14.17;94.83;98696.19;5070543;28;20214;-69
2024/04/02 02:44:24;;;;;;;1.00;1.00;;;;;;;14.22;93.94;98694.16;5070755;28;20258;-69
2024/04/02 02:46:51;;;;;;;5.23;2.07;;;;;;;14.28;93.60;98698.97;5070553;28;20625;-69
2024/04/02 02:49:16;;;;;;;1.30;1.30;;;;;;;14.35;93.54;98689.19;5070055;28;20733;-69
2024/04/02 02:51:44;;;;;;;7.60;1.33;;;;;;;14.43;93.35;98693.00;5070564;28;20201;-69
2024/04/02 02:54:10;;;;;;;5.40;1.43;;;;;;;14.39;92.62;98665.72;5069751;28;20217;-70
2024/04/02 02:56:37;;;;;;;2.57;1.53;;;;;;;14.46;92.94;98697.97;5070696;28;20278;-69
2024/04/02 02:59:02;;;;;;;7.73;1.83;;;;;;;14.45;93.11;98691.16;5069597;28;20205;-69
2024/04/02 03:01:29;;;;;;;2.87;1.23;;;;;;;14.45;92.86;98692.91;5070412;28;20204;-69
2024/04/02 03:03:55;;;;;;;3.03;1.17;;;;;;;14.47;92.58;98679.03;5070218;28;20204;-70
2024/04/02 03:06:21;;;;;;;6.77;1.70;;;;;;;14.34;92.45;98675.47;5070423;28;20199;-69
2024/04/02 03:08:49;;;;;;;2.80;1.27;;;;;;;14.33;93.53;98691.84;5070568;28;20199;-69
2024/04/02 03:11:15;;;;;;;1.13;1.13;;;;;;;14.34;93.39;98688.38;5069892;28;20204;-69
2024/04/02 03:13:41;;;;;;;1.60;1.53;;;;;;;14.28;92.96;98678.34;5069812;28;20211;-69
2024/04/02 03:16:08;;;;;;;4.00;1.23;;;;;;;14.29;93.43;98684.34;5070189;28;20261;-69
2024/04/02 03:18:33;;;;;;;5.13;0.90;;;;;;;14.24;93.49;98676.88;5070080;28;20192;-70
2024/04/02 03:21:01;;;;;;;2.67;1.20;;;;;;;13.94;95.15;98666.53;5070157;28;20729;-69
2024/04/02 03:23:27;;;;;;;1.33;1.33;;;;;;;13.84;95.97;98664.53;5068615;28;20254;-69
2024/04/02 03:25:58;;;;;;;2.23;2.10;;;;;;;13.76;95.94;98640.97;5070546;28;20568;-70
2024/04/02 03:28:26;;;;;;;14.83;1.13;;;;;;;13.97;95.92;98663.78;5069460;28;20668;-69
2024/04/02 03:30:57;;;;;;;2.00;1.50;;;;;;;14.04;95.16;98669.44;5069531;28;20618;-70
2024/04/02 03:33:23;;;;;;;1.63;1.30;;;;;;;14.01;95.47;98660.13;5068804;28;20215;-69
2024/04/02 03:35:50;;;;;;;6.10;1.53;;;;;;;14.07;95.43;98666.69;5072245;28;20205;-69
2024/04/02 03:38:17;;;;;;;2.97;2.13;;;;;;;14.00;94.98;98671.34;5069549;28;20293;-70
2024/04/02 03:40:44;;;;;;;4.07;1.73;;;;;;;13.87;95.77;98672.09;5069760;28;20579;-69
2024/04/02 03:43:12;;;;;;;1.97;1.80;;;;;;;13.66;96.88;98664.66;5069829;28;20204;-69
2024/04/02 03:45:39;;;;;;;1.60;1.50;;;;;;;13.68;97.16;98665.38;5068542;28;20200;-69
2024/04/02 03:48:06;;;;;;;2.57;1.33;;;;;;;13.80;96.82;98668.19;5068042;28;20303;-69
2024/04/02 03:50:33;;;;;;;1.60;1.50;;;;;;;13.85;96.61;98671.38;5069408;28;20606;-68
2024/04/02 03:52:59;;;;;;;4.17;2.23;;;;;;;13.85;96.44;98671.38;5068414;28;20210;-69
2024/04/02 03:55:26;;;;;;;1.53;1.43;;;;;;;13.82;96.53;98666.38;5069040;28;20234;-69
2024/04/02 03:57:51;;;;;;;1.87;1.50;;;;;;;13.63;97.51;98667.34;5065394;28;20265;-69
2024/04/02 04:00:20;;;;;;;2.33;1.27;;;;;;;13.58;98.13;98665.97;5068952;28;20208;-69
2024/04/02 04:02:45;;;;;;;6.27;2.00;;;;;;;13.63;98.04;98679.44;5069110;28;20198;-69
2024/04/02 04:05:12;;;;;;;2.87;2.10;;;;;;;13.67;97.82;98666.28;5069116;28;20197;-69
2024/04/02 04:07:38;;;;;;;12.03;2.17;;;;;;;13.65;96.98;98678.44;5069025;28;20225;-70
2024/04/02 04:10:05;;;;;;;7.53;1.57;;;;;;;13.41;98.06;98666.84;5068274;28;20204;-69
2024/04/02 04:12:31;;;;;;;5.20;1.80;;;;;;;13.53;97.98;98668.81;5068884;28;20287;-69
2024/04/02 04:14:58;;;;;;;1.40;1.40;;;;;;;13.58;97.72;98653.91;5068568;28;20307;-70
2024/04/02 04:17:25;;;;;;;3.93;2.33;;;;;;;13.46;97.66;98646.84;5069219;28;20202;-70
2024/04/02 04:19:51;;;;;;;4.30;1.30;;;;;;;13.40;98.55;98642.03;5069223;28;20204;-69
2024/04/02 04:22:17;;;;;;;7.70;1.90;;;;;;;13.48;97.93;98647.59;5069256;28;20202;-69
2024/04/02 04:24:44;;;;;;;4.37;1.57;;;;;;;13.48;97.18;98632.16;5069410;28;20257;-69
2024/04/02 04:27:09;;;;;;;0.87;0.87;;;;;;;13.55;97.10;98640.38;5069062;28;20213;-69
2024/04/02 04:29:37;;;;;;;12.83;1.30;;;;;;;13.56;97.31;98657.50;5069253;28;20201;-69
2024/04/02 04:32:03;;;;;;;3.40;1.00;;;;;;;13.42;97.33;98655.66;5068799;28;20250;-70
2024/04/02 04:34:31;;;;;;;1.67;1.57;;;;;;;13.37;96.65;98661.97;5069348;28;20227;-69
2024/04/02 04:36:57;;;;;;;8.27;1.40;;;;;;;13.47;96.88;98663.16;5072615;28;20197;-69
2024/04/02 04:39:23;;;;;;;3.07;1.20;;;;;;;13.54;96.43;98660.13;5072781;28;20642;-69
2024/04/02 04:41:49;;;;;;;2.07;1.90;;;;;;;13.52;95.79;98661.13;5072911;28;20201;-70
2024/04/02 04:44:16;;;;;;;1.10;1.10;;;;;;;13.54;96.24;98667.88;5072483;28;20258;-69
2024/04/02 04:46:41;;;;;;;1.53;1.43;;;;;;;13.64;95.69;98655.31;5070995;28;20250;-69
2024/04/02 04:49:09;;;;;;;2.13;1.37;;;;;;;13.54;96.32;98655.00;5072465;28;20208;-69
2024/04/02 04:51:36;;;;;;;7.83;2.03;;;;;;;13.44;95.87;98633.22;5072329;28;20235;-69
2024/04/02 04:54:03;;;;;;;2.63;1.80;;;;;;;13.57;96.05;98641.13;5072190;28;20227;-68
2024/04/02 04:56:28;;;;;;;3.83;1.67;;;;;;;13.58;95.59;98633.31;5072175;28;20321;-69
2024/04/02 04:58:55;;;;;;;1.50;1.40;;;;;;;13.57;94.42;98639.38;5068489;28;20685;-69
2024/04/02 05:01:21;;;;;;;1.90;1.40;;;;;;;13.50;94.04;98642.38;5072156;28;20200;-70
2024/04/02 05:03:47;;;;;;;1.17;1.10;;;;;;;13.63;93.22;98656.25;5072754;28;20623;-71
2024/04/02 05:06:13;;;;;;;4.70;1.43;;;;;;;13.62;93.95;98668.28;5071961;28;20205;-69
2024/04/02 05:08:41;;;;;;;1.20;1.20;;;;;;;13.73;94.24;98654.00;5071709;28;20197;-69
2024/04/02 05:11:07;;;;;;;1.43;1.27;;;;;;;13.79;94.00;98653.66;5069862;28;20656;-69
2024/04/02 05:13:34;;;;;;;1.30;1.20;;;;;;;13.87;93.24;98657.47;5071530;28;20262;-67
2024/04/02 05:16:01;;;;;;;5.07;2.43;;;;;;;13.95;92.29;98654.47;5072584;28;20806;-63
2024/04/02 05:18:28;;;;;;;3.93;2.33;;;;;;;13.93;92.66;98659.72;5073609;28;20698;-63
2024/04/02 05:20:54;;;;;;;2.10;1.90;;;;;;;14.07;92.84;98651.22;5073635;28;20740;-64
2024/04/02 05:23:21;;;;;;;2.13;1.67;;;;;;;14.04;92.97;98649.66;5072917;28;20207;-64
2024/04/02 05:25:48;;;;;;;3.50;1.00;;;;;;;14.01;93.11;98669.59;5076447;28;20201;-63
2024/04/02 05:28:15;;;;;;;2.10;1.63;;;;;;;13.97;93.39;98662.94;5073467;28;20200;-63
2024/04/02 05:30:41;;;;;;;3.20;2.10;;;;;;;13.96;94.03;98640.66;5074556;28;20209;-63
2024/04/02 05:33:07;;;;;;;1.70;1.20;;;;;;;14.12;93.10;98638.88;5073510;28;20196;-63
2024/04/02 05:35:33;;;;;;;1.30;1.20;;;;;;;14.11;92.38;98635.50;5072748;28;20658;-64
2024/04/02 05:38:00;;;;;;;1.37;1.20;;;;;;;14.21;91.66;98638.38;5073303;28;20208;-64
2024/04/02 05:40:25;;;;;;;1.63;1.27;;;;;;;14.41;90.16;98647.59;5072839;28;20265;-65
2024/04/02 05:42:54;;;;;;;2.47;1.67;;;;;;;14.50;90.49;98650.47;5071413;28;20208;-63
2024/04/02 05:45:19;;;;;;;2.50;1.57;;;;;;;14.61;90.21;98650.66;5070151;28;20200;-63
2024/04/02 05:47:46;;;;;;;6.13;1.50;;;;;;;14.60;88.97;98636.09;5071326;28;20257;-65
2024/04/02 05:50:12;;;;;;;1.03;1.03;;;;;;;14.73;88.85;98656.03;5071447;28;20203;-65
2024/04/02 05:52:39;;;;;;;1.80;1.70;;;;;;;14.86;88.85;98660.41;5072027;28;20622;-63
2024/04/02 05:55:05;;;;;;;2.20;2.10;;;;;;;14.99;88.67;98640.66;5072603;28;20276;-64
2024/04/02 05:57:32;;;;;;;2.00;1.87;;;;;;;15.23;88.12;98669.31;5072921;28;20207;-65
2024/04/02 05:59:59;;;;;;;3.73;1.40;;;;;;;15.48;85.91;98658.34;5072644;28;20204;-63
2024/04/02 06:02:26;;;;;;;5.10;2.37;;;;;;;15.70;83.69;98659.50;5073014;28;20200;-64
2024/04/02 06:04:52;;;;;;;2.47;1.83;;;;;;;15.93;82.44;98665.00;5072495;28;20265;-65
2024/04/02 06:07:19;;;;;;;1.50;1.50;;;;;;;16.20;79.94;98673.56;5072530;28;20652;-63
2024/04/02 06:09:45;;;;;;;2.73;1.50;;;;;;;16.39;78.43;98686.97;5072514;28;20204;-63
2024/04/02 06:12:12;;;;;;;0.73;0.73;;;;;;;16.66;77.34;98698.13;5072769;28;20208;-63
2024/04/02 06:14:38;;;;;;;6.63;1.10;;;;;;;16.89;76.19;98704.38;5072971;28;20269;-64
2024/04/02 06:17:06;;;;;;;1.33;1.23;;;;;;;17.10;74.09;98708.09;5072272;28;20219;-63
2024/04/02 06:19:32;;;;;;;1.00;0.97;;;;;;;17.38;73.51;98712.25;5072614;28;20675;-64
2024/04/02 06:21:59;;;;;;;1.93;1.10;;;;;;;17.53;70.41;98720.72;5072441;28;20254;-64
2024/04/02 06:24:24;;;;;;;1.53;1.53;;;;;;;17.65;70.17;98719.88;5072572;28;20254;-64
2024/04/02 06:26:51;;;;;;;1.70;1.40;;;;;;;17.95;68.47;98728.13;5072448;28;20200;-64
2024/04/02 06:29:17;;;;;;;1.70;1.60;;;;;;;18.14;67.47;98717.25;5072695;28;20200;-67
2024/04/02 06:31:45;;;;;;;4.67;0.70;;;;;;;18.38;68.39;98715.50;5072147;28;20200;-64
2024/04/02 06:34:12;;;;;;;1.57;1.47;;;;;;;18.66;68.63;98709.13;5072273;28;20258;-64
2024/04/02 06:36:39;;;;;;;5.23;1.20;;;;;;;18.84;67.65;98700.78;5072579;28;20684;-63
2024/04/02 06:39:05;;;;;;;1.43;1.43;;;;;;;19.00;65.89;98705.66;5072195;28;20288;-63
2024/04/02 06:41:31;;;;;;;6.70;0.90;;;;;;;19.28;66.26;98707.00;5072111;28;20758;-64
2024/04/02 06:43:57;;;;;;;2.13;1.07;;;;;;;19.49;63.96;98705.38;5071509;28;20205;-67
2024/04/02 06:46:24;;;;;;;5.43;1.30;;;;;;;19.76;62.61;98707.59;5071357;28;20268;-67
2024/04/02 06:48:50;;;;;;;6.40;1.37;;;;;;;20.01;61.94;98696.06;5070064;28;20621;-67
2024/04/02 06:51:18;;;;;;;4.90;1.00;;;;;;;20.10;60.69;98695.34;5069718;28;20238;-67
2024/04/02 06:53:44;;;;;;;2.67;1.33;;;;;;;20.08;58.59;98689.44;5066000;28;20736;-67
2024/04/02 06:56:11;;;;;;;0.90;0.90;;;;;;;20.18;60.95;98688.59;5069444;28;20234;-67
2024/04/02 06:58:37;;;;;;;4.63;1.37;;;;;;;20.33;60.85;98692.56;5070340;28;20207;-67
2024/04/02 07:01:04;;;;;;;0.93;0.93;;;;;;;20.46;62.92;98694.19;5069516;28;20207;-67
2024/04/02 07:03:30;;;;;;;1.17;1.07;;;;;;;20.78;60.63;98703.59;5069150;28;20503;-67
2024/04/02 07:05:57;;;;;;;2.10;1.33;;;;;;;20.95;60.90;98705.63;5066564;28;20672;-66
2024/04/02 07:08:25;;;;;;;2.17;0.80;;;;;;;21.16;59.16;98704.84;5069575;28;20199;-67
2024/04/02 07:10:59;;;;;;;2.67;0.80;;;;;;;21.38;58.44;98708.09;5066604;28;20280;-67
2024/04/02 07:13:25;;;;;;;1.77;1.33;;;;;;;21.45;57.18;98706.59;5067674;28;20291;-67
2024/04/02 07:15:52;;;;;;;3.93;1.10;;;;;;;21.60;56.44;98714.06;5070769;28;20246;-67
2024/04/02 07:18:18;;;;;;;4.20;1.00;;;;;;;21.53;56.53;98679.88;5070857;28;20761;-67
2024/04/02 07:20:45;;;;;;;2.47;0.90;;;;;;;21.92;55.79;98718.19;5069287;28;20200;-67
2024/04/02 07:23:10;;;;;;;3.00;1.13;;;;;;;22.08;55.46;98695.94;5070594;28;20557;-67
2024/04/02 07:25:38;;;;;;;1.53;1.13;;;;;;;22.29;54.59;98707.13;5069215;28;20211;-66
2024/04/02 07:28:04;;;;;;;2.53;1.70;;;;;;;22.51;54.05;98693.78;5070562;28;20257;-67
2024/04/02 07:30:31;;;;;;;0.97;0.97;;;;;;;22.56;52.79;98688.94;5070236;28;20621;-67
2024/04/02 07:32:56;;;;;;;0.60;0.60;;;;;;;22.68;51.54;98677.41;5071042;28;20211;-67
2024/04/02 07:35:23;;;;;;;0.80;0.80;;;;;;;22.84;50.10;98690.72;5070613;28;20215;-66
2024/04/02 07:37:49;;;;;;;1.70;1.10;;;;;;;23.05;51.22;98708.03;5070570;28;20329;-67
2024/04/02 07:40:16;;;;;;;1.00;0.67;;;;;;;23.23;49.29;98711.56;5070647;28;20196;-68
2024/04/02 07:42:43;;;;;;;5.23;0.87;;;;;;;23.25;48.03;98704.41;5070230;28;20235;-67
2024/04/02 07:45:10;;;;;;;0.80;0.80;;;;;;;23.43;48.55;98707.94;5067578;28;20202;-67
2024/04/02 07:47:35;;;;;;;0.70;0.70;;;;;;;23.63;47.73;98714.75;5067883;28;20196;-67
2024/04/02 07:50:03;;;;;;;0.90;0.90;;;;;;;23.78;48.31;98702.81;5068768;28;20214;-66
2024/04/02 07:52:29;;;;;;;0.80;0.80;;;;;;;24.08;49.04;98708.69;5070105;28;20711;-67
2024/04/02 07:54:55;;;;;;;1.37;0.90;;;;;;;24.15;48.47;98688.84;5068346;28;20219;-67
2024/04/02 07:57:21;;;;;;;1.03;1.00;;;;;;;24.31;49.85;98699.47;5070015;28;20200;-66
2024/04/02 07:59:49;;;;;;;3.27;0.97;;;;;;;24.35;48.79;98687.72;5070223;28;20200;-66
2024/04/02 08:02:15;;;;;;;1.27;0.97;;;;;;;24.37;48.16;98676.09;5070171;28;20262;-67
2024/04/02 08:04:42;;;;;;;10.97;1.40;;;;;;;24.58;48.09;98682.84;5070511;28;20644;-67
2024/04/02 08:07:09;;;;;;;6.77;1.70;;;;;;;24.47;49.24;98697.00;5070271;28;20209;-66
2024/04/02 08:09:36;;;;;;;1.73;0.60;;;;;;;24.36;50.77;98707.72;5070672;28;20199;-67
2024/04/02 08:12:02;;;;;;;1.10;0.97;;;;;;;24.26;49.04;98699.94;5074081;28;20707;-68
2024/04/02 08:14:32;;;;;;;0.70;0.70;;;;;;;24.26;49.42;98691.25;5073917;28;20244;-67
2024/04/02 08:16:59;;;;;;;1.20;1.20;;;;;;;24.34;50.56;98704.41;5072820;28;20752;-68
2024/04/02 08:19:26;;;;;;;4.73;0.80;;;;;;;24.44;51.99;98700.75;5073982;28;20196;-67
2024/04/02 08:21:51;;;;;;;0.63;0.63;;;;;;;24.60;51.97;98694.81;5073580;28;20214;-67
2024/04/02 08:24:18;;;;;;;2.27;1.40;;;;;;;24.55;54.36;98699.69;5071846;28;20200;-66
2024/04/02 08:26:44;;;;;;;1.00;0.97;;;;;;;24.54;53.80;98690.19;5071134;28;20200;-66
2024/04/02 08:29:10;;;;;;;3.07;1.10;;;;;;;24.70;54.33;98690.31;5072678;28;20249;-66
2024/04/02 08:31:36;;;;;;;3.20;1.00;;;;;;;24.81;54.23;98694.50;5072488;28;20200;-66
2024/04/02 08:34:04;;;;;;;2.30;1.20;;;;;;;24.97;51.41;98682.34;5072707;28;20265;-66
2024/04/02 08:36:30;;;;;;;2.93;1.30;;;;;;;25.17;49.73;98684.75;5071159;28;20212;-66
2024/04/02 08:38:56;;;;;;;2.40;0.97;;;;;;;25.23;51.35;98689.38;5072758;28;20294;-66
2024/04/02 08:41:25;;;;;;;2.80;1.00;;;;;;;25.40;54.02;98688.44;5073001;28;20200;-66
2024/04/02 08:43:57;;;;;;;1.67;1.27;;;;;;;25.43;54.15;98698.63;5071988;28;20628;-66
2024/04/02 08:46:24;;;;;;;4.43;1.23;;;;;;;25.49;51.49;98692.78;5072484;28;20300;-66
2024/04/02 08:48:53;;;;;;;1.60;1.37;;;;;;;25.48;51.48;98683.25;5073005;28;20287;-67
2024/04/02 08:51:20;;;;;;;3.60;0.97;;;;;;;25.66;49.51;98670.88;5073487;28;20595;-66
2024/04/02 08:53:47;;;;;;;2.67;1.23;;;;;;;25.64;48.72;98675.47;5074685;28;20250;-64
2024/04/02 08:56:14;;;;;;;3.83;1.37;;;;;;;25.88;47.98;98678.16;5073966;28;20228;-65
2024/04/02 08:58:42;;;;;;;1.77;1.23;;;;;;;26.06;51.60;98675.44;5074023;28;20257;-65
2024/04/02 09:01:11;;;;;;;8.70;1.80;;;;;;;26.28;47.94;98664.31;5074241;28;20212;-64
2024/04/02 09:03:38;;;;;;;4.63;1.30;;;;;;;26.27;46.67;98661.88;5074297;28;20635;-65
2024/04/02 09:06:04;;;;;;;2.70;0.97;;;;;;;26.27;48.20;98669.75;5074237;28;20203;-64
2024/04/02 09:08:43;;;;;;;5.00;1.80;;;;;;;26.42;48.22;98670.72;5073946;28;20196;-65
2024/04/02 09:11:09;;;;;;;1.50;1.00;;;;;;;26.55;50.35;98671.88;5073642;28;20204;-64
2024/04/02 09:13:36;;;;;;;0.93;0.93;;;;;;;26.61;46.88;98660.72;5073501;28;20200;-65
2024/04/02 09:16:02;;;;;;;0.80;0.80;;;;;;;26.72;45.37;98656.91;5073603;28;20293;-64
2024/04/02 09:18:30;;;;;;;4.20;1.57;;;;;;;26.74;44.08;98654.94;5073652;28;20203;-65
2024/04/02 09:20:59;;;;;;;1.07;1.07;;;;;;;26.71;45.07;98671.06;5066821;28;20208;-65
2024/04/02 09:23:26;;;;;;;1.23;1.23;;;;;;;26.65;45.50;98661.19;5071996;28;20668;-65
2024/04/02 09:25:53;;;;;;;7.47;1.70;;;;;;;26.72;48.50;98646.38;5072574;28;20203;-65
2024/04/02 09:28:20;;;;;;;1.73;1.03;;;;;;;26.85;48.74;98651.19;5073240;28;20235;-66
2024/04/02 09:30:46;;;;;;;4.23;2.70;;;;;;;26.77;47.11;98641.47;5073381;28;20658;-65
2024/04/02 09:33:12;;;;;;;3.90;2.07;;;;;;;26.71;48.57;98647.38;5073441;28;20200;-65
2024/04/02 09:35:58;;;;;;;1.80;1.67;;;;;;;26.46;44.78;98643.16;5073362;28;20258;-65
2024/04/02 09:38:25;;;;;;;3.03;1.10;;;;;;;26.41;42.68;98640.16;5073262;28;20199;-65
2024/04/02 09:40:53;;;;;;;2.13;1.37;;;;;;;26.47;43.52;98639.50;5073397;28;20196;-65
2024/04/02 09:43:21;;;;;;;1.67;1.20;;;;;;;26.61;40.90;98633.59;5073094;28;20204;-65
2024/04/02 09:45:49;;;;;;;3.00;0.93;;;;;;;26.70;39.51;98622.06;5073049;28;20196;-65
2024/04/02 09:48:17;;;;;;;0.90;0.90;;;;;;;26.83;41.66;98629.47;5073325;28;20257;-65
2024/04/02 09:50:45;;;;;;;4.63;1.00;;;;;;;27.00;39.67;98618.75;5073002;28;20234;-65
2024/04/02 09:53:13;;;;;;;1.23;1.13;;;;;;;27.07;38.98;98626.78;5071502;28;20257;-65
2024/04/02 09:55:40;;;;;;;5.78;1.48;;;;;;;27.09;41.07;98617.75;5071530;28;20454;-67
2024/04/02 09:58:10;;;;;;;2.23;1.07;;;;;;;27.32;38.98;98614.34;5071452;28;20262;-68
2024/04/02 10:00:37;;;;;;;3.20;1.10;;;;;;;27.64;38.33;98611.59;5073268;28;21024;-65
2024/04/02 10:03:06;;;;;;;2.77;1.60;;;;;;;28.01;38.52;98609.03;5071109;28;20455;-65
2024/04/02 10:05:33;;;;;;;1.75;1.33;;;;;;;28.09;38.48;98609.03;5070578;28;20243;-65
2024/04/02 10:08:00;;;;;;;1.00;1.00;;;;;;;28.35;37.29;98615.72;5071425;28;20211;-66
2024/04/02 10:10:28;;;;;;;1.43;1.30;;;;;;;28.52;37.75;98607.50;5071160;28;20207;-65
2024/04/02 10:12:56;;;;;;;2.35;1.08;;;;;;;28.58;35.93;98595.41;5071277;28;20287;-65
2024/04/02 10:15:23;;;;;;;1.70;1.42;;;;;;;28.76;36.67;98605.66;5071016;28;20220;-66
2024/04/02 10:17:58;;;;;;;1.83;1.15;;;;;;;28.94;36.58;98601.66;5066728;28;20196;-66
2024/04/02 10:20:25;;;;;;;0.88;0.70;;;;;;;28.89;36.31;98593.47;5070723;28;20215;-66
2024/04/02 10:22:53;;;;;;;2.78;0.95;;;;;;;28.98;38.02;98599.50;5069280;28;20242;-66
2024/04/02 10:25:19;;;;;;;3.83;1.10;;;;;;;28.86;38.05;98593.00;5070872;28;20201;-66
2024/04/02 10:27:47;;;;;;;0.90;0.90;;;;;;;28.73;38.86;98604.19;5069373;28;21173;-66
2024/04/02 10:30:17;;;;;;;0.98;0.98;;;;;;;28.69;38.65;98595.03;5069412;28;20759;-66
2024/04/02 10:32:45;;;;;;;2.33;1.17;;;;;;;28.74;40.06;98582.09;5069885;28;20197;-65
2024/04/02 10:35:18;;;;;;;1.65;1.55;;;;;;;28.72;39.65;98576.19;5066869;28;20234;-66
2024/04/02 10:37:46;;;;;;;3.83;0.98;;;;;;;28.81;40.50;98577.75;5067402;28;20676;-67
2024/04/02 10:40:12;;;;;;;1.27;1.17;;;;;;;29.04;38.01;98575.81;5068081;28;20258;-67
2024/04/02 10:42:39;;;;;;;1.13;1.13;;;;;;;29.14;38.06;98565.78;5069275;28;20200;-69
2024/04/02 10:45:07;;;;;;;6.35;0.88;;;;;;;29.06;36.04;98573.81;5069656;28;20232;-66
2024/04/02 10:47:35;;;;;;;5.78;1.00;;;;;;;29.08;36.64;98558.59;5069885;28;20204;-66
2024/04/02 10:50:02;;;;;;;3.08;1.35;;;;;;;29.27;35.43;98567.81;5066154;28;20243;-68
2024/04/02 10:52:35;;;;;;;1.05;1.05;;;;;;;29.19;31.32;98552.88;5068275;28;20219;-66
2024/04/02 10:55:02;;;;;;;1.70;0.50;;;;;;;29.07;30.55;98554.34;5068060;28;20384;-66
2024/04/02 10:57:29;;;;;;;1.65;0.50;;;;;;;29.23;31.78;98553.31;5069160;28;20200;-66
2024/04/02 10:59:54;;;;;;;0.75;0.75;;;;;;;29.30;30.67;98553.41;5070085;28;20204;-65
2024/04/02 11:02:21;;;;;;;1.02;0.70;;;;;;;29.31;31.62;98518.06;5067507;28;20265;-66
2024/04/02 11:04:47;;;;;;;2.00;0.80;;;;;;;29.46;31.22;98522.34;5068705;28;20254;-66
2024/04/02 11:07:15;;;;;;;0.63;0.63;;;;;;;29.63;29.88;98523.72;5069153;28;20196;-66
2024/04/02 11:09:42;;;;;;;0.60;0.60;;;;;;;29.63;28.37;98520.25;5068621;28;20722;-66
2024/04/02 11:12:09;;;;;;;0.90;0.85;;;;;;;29.68;29.33;98528.44;5068908;28;20668;-66
2024/04/02 11:14:36;;;;;;;1.00;0.85;;;;;;;29.76;28.59;98523.00;5067254;28;20254;-66
2024/04/02 11:17:03;;;;;;;0.50;0.50;;;;;;;29.58;28.75;98477.75;5063204;28;20216;-66
2024/04/02 11:19:28;;;;;;;0.70;0.70;;;;;;;29.79;28.64;98506.00;5058461;28;20295;-66
2024/04/02 11:27:24;;;;;;;0.82;0.82;;;;;;;29.48;30.12;98493.91;5066912;28;20218;-65
2024/04/02 11:29:51;;;;;;;2.17;0.50;;;;;;;29.50;30.66;98509.56;5067203;28;20266;-66
2024/04/02 11:32:16;;;;;;;0.73;0.52;;;;;;;29.41;31.12;98513.31;5068905;28;20200;-66
2024/04/02 11:34:43;;;;;;;1.25;0.57;;;;;;;29.43;32.31;98506.03;5067349;28;20754;-66
2024/04/02 11:37:09;;;;;;;4.00;0.95;;;;;;;29.44;31.51;98502.38;5065671;28;20219;-66